Time;durP1;ratioP1;P1;durP2;ratioP2;P2;SDS_P1;SDS_P2;PMS_P1;PMS_P2;Temp;Humidity;BMP_temperature;BMP_pressure;BME280_temperature;BME280_humidity;BME280_pressure;Samples;Min_cycle;Max_cycle;Signal;HPM_P1;HPM_P2
2022/11/14 00:00:30;;;;;;;9.98;6.93;;;;;;;11.20;58.68;101470.03;5140317;27;20039;-64
2022/11/14 00:03:00;;;;;;;9.40;6.38;;;;;;;11.20;58.59;101471.91;5140778;27;20051;-65
2022/11/14 00:05:28;;;;;;;11.50;6.78;;;;;;;11.20;58.66;101461.16;5142304;27;20446;-65
2022/11/14 00:07:55;;;;;;;11.07;6.70;;;;;;;11.16;58.76;101471.50;5133554;27;20241;-64
2022/11/14 00:10:25;;;;;;;11.93;6.95;;;;;;;11.16;58.76;101465.31;5142621;27;20050;-64
2022/11/14 00:12:53;;;;;;;12.77;6.18;;;;;;;11.15;58.56;101464.47;5142094;27;20053;-64
2022/11/14 00:15:20;;;;;;;11.68;6.75;;;;;;;11.13;58.66;101463.84;5141680;27;20043;-64
2022/11/14 00:17:48;;;;;;;11.32;6.85;;;;;;;11.12;58.58;101453.31;5130463;27;20044;-64
2022/11/14 00:20:16;;;;;;;9.55;6.45;;;;;;;11.13;58.62;101455.78;5141977;27;20049;-64
2022/11/14 00:22:44;;;;;;;12.65;6.55;;;;;;;11.14;58.56;101457.44;5138253;27;20051;-64
2022/11/14 00:25:12;;;;;;;10.85;6.82;;;;;;;11.12;58.49;101451.44;5142860;27;20039;-64
2022/11/14 00:27:41;;;;;;;10.30;7.05;;;;;;;11.11;58.33;101448.97;5125886;28;20043;-64
2022/11/14 00:30:09;;;;;;;10.90;6.30;;;;;;;11.09;58.50;101449.16;5133143;28;20047;-64
2022/11/14 00:32:37;;;;;;;11.18;6.93;;;;;;;11.07;58.49;101449.38;5142592;28;20061;-64
2022/11/14 00:35:05;;;;;;;9.98;6.63;;;;;;;11.05;58.43;101443.38;5141454;28;20055;-64
2022/11/14 00:37:32;;;;;;;9.77;6.20;;;;;;;11.05;58.35;101443.38;5139872;27;20047;-64
2022/11/14 00:40:00;;;;;;;8.98;5.53;;;;;;;11.05;58.49;101435.31;5145673;27;20049;-64
2022/11/14 00:42:28;;;;;;;9.68;6.18;;;;;;;11.01;58.37;101433.25;5146599;27;20077;-64
2022/11/14 00:44:57;;;;;;;12.10;6.80;;;;;;;11.03;58.52;101434.69;5137930;27;20073;-64
2022/11/14 00:47:25;;;;;;;9.90;6.40;;;;;;;11.01;58.31;101436.78;5137998;27;20062;-64
2022/11/14 00:49:52;;;;;;;11.20;5.85;;;;;;;11.01;58.35;101431.41;5143076;27;20039;-64
2022/11/14 00:52:20;;;;;;;10.13;6.00;;;;;;;11.00;58.43;101429.75;5146885;27;20047;-64
2022/11/14 00:54:48;;;;;;;9.95;6.40;;;;;;;11.01;58.42;101435.94;5139681;27;20055;-64
2022/11/14 00:57:15;;;;;;;9.93;6.25;;;;;;;10.98;58.30;101434.50;5141750;27;20047;-64
2022/11/14 00:59:43;;;;;;;9.70;6.88;;;;;;;10.98;58.42;101429.13;5143269;27;20051;-64
2022/11/14 01:02:12;;;;;;;8.68;5.93;;;;;;;11.01;58.33;101430.56;5131254;27;20070;-64
2022/11/14 01:04:40;;;;;;;8.88;5.72;;;;;;;10.99;58.29;101424.56;5136633;27;20043;-64
2022/11/14 01:07:08;;;;;;;9.27;6.28;;;;;;;10.99;58.30;101421.88;5145631;27;20066;-64
2022/11/14 01:09:35;;;;;;;9.18;6.07;;;;;;;10.98;58.22;101422.91;5137336;27;20067;-64
2022/11/14 01:12:03;;;;;;;8.30;5.85;;;;;;;10.98;58.09;101425.59;5144671;27;20359;-64
2022/11/14 01:14:31;;;;;;;8.35;5.55;;;;;;;10.95;58.31;101418.78;5145157;27;20043;-64
2022/11/14 01:16:59;;;;;;;12.25;6.50;;;;;;;10.92;58.25;101411.13;5142667;27;20057;-65
2022/11/14 01:19:28;;;;;;;8.30;6.18;;;;;;;10.90;58.20;101410.53;5145618;27;20067;-65
2022/11/14 01:21:56;;;;;;;7.82;5.45;;;;;;;10.88;58.30;101404.53;5146245;27;20054;-64
2022/11/14 01:24:31;;;;;;;8.38;5.70;;;;;;;10.88;58.14;101403.69;5131251;27;20063;-64
2022/11/14 01:26:59;;;;;;;8.98;5.32;;;;;;;10.87;58.14;101405.56;5143421;27;20049;-64
2022/11/14 01:29:27;;;;;;;8.52;5.40;;;;;;;10.88;58.22;101401.00;5146096;27;20049;-64
2022/11/14 01:31:55;;;;;;;9.25;5.63;;;;;;;10.86;58.05;101405.78;5142663;27;20047;-64
2022/11/14 01:34:23;;;;;;;11.05;6.80;;;;;;;10.82;57.96;101394.63;5146060;27;20055;-64
2022/11/14 01:36:52;;;;;;;8.55;5.75;;;;;;;10.79;57.89;101395.03;5144134;27;20061;-64
2022/11/14 01:39:20;;;;;;;9.57;5.47;;;;;;;10.78;57.91;101393.38;5144148;27;20058;-64
2022/11/14 01:41:48;;;;;;;9.80;5.60;;;;;;;10.75;57.80;101383.03;5140914;27;20039;-64
2022/11/14 01:44:17;;;;;;;8.95;5.70;;;;;;;10.75;58.19;101393.81;5134200;27;20056;-64
2022/11/14 01:46:51;;;;;;;8.77;5.78;;;;;;;10.76;57.79;101387.38;5145213;27;20047;-64
2022/11/14 01:49:22;;;;;;;10.02;5.65;;;;;;;10.74;57.70;101387.59;5139703;27;20054;-64
2022/11/14 01:51:58;;;;;;;9.40;6.18;;;;;;;10.73;57.60;101379.75;5159030;27;20042;-65
2022/11/14 01:54:29;;;;;;;9.32;6.20;;;;;;;10.70;57.81;101374.78;5157474;27;20054;-65
2022/11/14 01:57:00;;;;;;;9.38;5.95;;;;;;;10.68;57.52;101379.53;5140737;27;20047;-64
2022/11/14 01:59:33;;;;;;;9.77;6.03;;;;;;;10.65;57.65;101378.09;5145176;27;20031;-64
2022/11/14 02:02:06;;;;;;;11.40;6.60;;;;;;;10.67;57.86;101384.09;5144315;27;20275;-64
2022/11/14 02:04:38;;;;;;;9.13;5.50;;;;;;;10.67;57.78;101375.19;5145486;27;20061;-64
2022/11/14 02:07:09;;;;;;;8.98;5.25;;;;;;;10.66;57.76;101374.38;5141067;27;20047;-64
2022/11/14 02:09:41;;;;;;;10.50;5.35;;;;;;;10.65;57.78;101374.59;5144774;27;20380;-64
2022/11/14 02:12:12;;;;;;;11.48;5.32;;;;;;;10.62;57.82;101367.75;5145012;27;20541;-64
2022/11/14 02:14:44;;;;;;;7.80;5.40;;;;;;;10.59;57.66;101370.88;5134933;27;20413;-64
2022/11/14 02:17:12;;;;;;;8.68;5.47;;;;;;;10.59;57.91;101365.50;5142019;27;20070;-64
2022/11/14 02:20:06;;;;;;;8.80;5.60;;;;;;;10.59;57.52;101365.50;5143615;27;20054;-64
2022/11/14 02:22:33;;;;;;;9.88;5.78;;;;;;;10.58;57.60;101355.78;5143029;27;20054;-64
2022/11/14 02:25:01;;;;;;;10.40;5.90;;;;;;;10.54;57.33;101348.34;5145230;27;20397;-64
2022/11/14 02:27:30;;;;;;;7.70;5.38;;;;;;;10.57;57.49;101347.94;5144466;27;20107;-64
2022/11/14 02:30:04;;;;;;;13.27;5.97;;;;;;;10.57;57.43;101342.56;5143239;27;20342;-64
2022/11/14 02:32:32;;;;;;;9.68;5.85;;;;;;;10.54;57.42;101341.09;5144767;27;20424;-64
2022/11/14 02:35:21;;;;;;;8.98;5.68;;;;;;;10.52;57.24;101339.66;5144975;27;20047;-64
2022/11/14 02:37:48;;;;;;;9.55;5.32;;;;;;;10.54;57.27;101340.28;5142200;27;20057;-64
2022/11/14 02:40:17;;;;;;;12.70;6.05;;;;;;;10.54;57.30;101334.91;5145138;27;20054;-64
2022/11/14 02:42:44;;;;;;;9.82;5.65;;;;;;;10.52;57.08;101339.66;5142755;27;20054;-64
2022/11/14 02:45:13;;;;;;;9.13;5.72;;;;;;;10.49;57.29;101338.22;5127363;27;20043;-64
2022/11/14 02:47:40;;;;;;;7.50;4.80;;;;;;;10.50;57.05;101339.03;5143946;27;20047;-64
2022/11/14 02:50:09;;;;;;;11.38;6.20;;;;;;;10.50;57.26;101341.75;5131600;27;20047;-63
2022/11/14 02:52:38;;;;;;;10.93;5.55;;;;;;;10.48;57.19;101341.13;5141989;27;20050;-64
2022/11/14 02:55:06;;;;;;;11.65;5.25;;;;;;;10.46;57.05;101327.91;5144714;27;20054;-64
2022/11/14 02:57:34;;;;;;;8.20;5.20;;;;;;;10.42;57.25;101324.78;5139216;27;20058;-64
2022/11/14 03:00:02;;;;;;;8.38;5.18;;;;;;;10.42;57.09;101327.47;5140534;27;20039;-64
2022/11/14 03:02:29;;;;;;;12.32;6.43;;;;;;;10.46;57.22;101321.69;5142178;27;20045;-64
2022/11/14 03:04:57;;;;;;;9.50;5.72;;;;;;;10.47;56.86;101313.41;5130693;27;20051;-64
2022/11/14 03:07:25;;;;;;;9.60;4.82;;;;;;;10.42;57.15;101314.06;5143538;27;20061;-64
2022/11/14 03:09:54;;;;;;;6.88;4.75;;;;;;;10.41;57.05;101312.41;5141856;27;20058;-65
2022/11/14 03:12:22;;;;;;;8.40;5.63;;;;;;;10.39;57.26;101317.19;5131205;27;20039;-64
2022/11/14 03:14:49;;;;;;;8.98;4.95;;;;;;;10.36;56.88;101314.91;5143882;27;20139;-64
2022/11/14 03:17:17;;;;;;;10.63;5.72;;;;;;;10.35;57.14;101313.25;5136578;27;20055;-64
2022/11/14 03:19:45;;;;;;;10.20;5.72;;;;;;;10.34;56.92;101310.78;5141322;27;20053;-64
2022/11/14 03:22:12;;;;;;;10.85;6.72;;;;;;;10.31;56.77;101305.81;5136421;27;20039;-64
2022/11/14 03:24:40;;;;;;;8.90;5.03;;;;;;;10.28;57.10;101304.38;5131256;27;20363;-64
2022/11/14 03:27:09;;;;;;;8.07;5.43;;;;;;;10.28;56.97;101307.06;5142114;27;20058;-64
2022/11/14 03:29:37;;;;;;;9.73;5.18;;;;;;;10.28;56.50;101309.75;5143249;27;20632;-64
2022/11/14 03:32:05;;;;;;;8.88;5.18;;;;;;;10.27;57.09;101310.78;5142201;27;20165;-64
2022/11/14 03:34:33;;;;;;;7.03;4.97;;;;;;;10.24;56.77;101311.22;5131490;27;20046;-64
2022/11/14 03:37:01;;;;;;;10.45;5.40;;;;;;;10.22;57.05;101304.41;5142115;27;20047;-64
2022/11/14 03:39:28;;;;;;;13.63;5.50;;;;;;;10.24;57.05;101305.84;5142091;27;20047;-64
2022/11/14 03:41:56;;;;;;;9.15;5.40;;;;;;;10.22;57.04;101305.22;5143788;27;20047;-64
2022/11/14 03:44:25;;;;;;;9.05;5.18;;;;;;;10.21;57.19;101300.88;5133660;27;20039;-64
2022/11/14 03:46:53;;;;;;;8.77;5.10;;;;;;;10.21;56.73;101292.00;5145872;27;20106;-65
2022/11/14 03:49:20;;;;;;;8.32;5.25;;;;;;;10.18;56.88;101295.91;5140598;27;20047;-63
2022/11/14 03:51:49;;;;;;;13.15;5.30;;;;;;;10.17;56.72;101302.31;5135477;27;20044;-63
2022/11/14 03:54:17;;;;;;;8.65;5.07;;;;;;;10.15;57.07;101301.69;5134920;27;20047;-63
2022/11/14 03:56:44;;;;;;;10.60;5.32;;;;;;;10.14;56.62;101293.84;5141953;27;20058;-63
2022/11/14 03:59:12;;;;;;;7.78;5.25;;;;;;;10.11;56.78;101295.91;5141525;27;20051;-64
2022/11/14 04:01:41;;;;;;;8.18;4.45;;;;;;;10.11;57.13;101287.84;5138727;27;20492;-63
2022/11/14 04:04:11;;;;;;;8.73;4.90;;;;;;;10.08;57.20;101288.25;5143311;27;20047;-63
2022/11/14 04:06:39;;;;;;;11.73;5.32;;;;;;;10.07;56.90;101281.22;5135787;27;20039;-63
2022/11/14 04:09:06;;;;;;;7.63;4.82;;;;;;;10.07;57.14;101286.59;5142701;27;20043;-63
2022/11/14 04:11:34;;;;;;;8.40;5.20;;;;;;;10.05;57.03;101279.78;5141466;27;20408;-63
2022/11/14 04:14:02;;;;;;;10.15;5.55;;;;;;;10.05;56.90;101277.09;5142936;27;20054;-64
2022/11/14 04:16:29;;;;;;;11.35;5.60;;;;;;;10.04;56.77;101268.22;5134050;27;20039;-64
2022/11/14 04:18:58;;;;;;;8.20;4.82;;;;;;;10.01;57.29;101270.50;5142818;27;20047;-64
2022/11/14 04:21:26;;;;;;;8.23;5.22;;;;;;;10.01;57.13;101262.44;5137818;27;20047;-63
2022/11/14 04:23:54;;;;;;;8.75;5.25;;;;;;;10.01;56.64;101257.91;5143149;27;20050;-63
2022/11/14 04:26:21;;;;;;;8.20;5.35;;;;;;;10.01;56.98;101265.13;5141598;27;20047;-63
2022/11/14 04:28:49;;;;;;;10.85;5.80;;;;;;;10.02;56.64;101266.78;5141620;28;20043;-64
2022/11/14 04:31:17;;;;;;;8.73;5.10;;;;;;;10.02;56.94;101264.91;5137867;28;20055;-64
2022/11/14 04:33:44;;;;;;;10.60;5.45;;;;;;;10.01;56.58;101262.44;5122302;28;20043;-63
2022/11/14 04:36:13;;;;;;;8.60;5.00;;;;;;;10.02;56.46;101256.88;5128959;28;20043;-63
2022/11/14 04:38:41;;;;;;;9.63;5.38;;;;;;;10.00;56.45;101255.41;5143036;28;20054;-63
2022/11/14 04:41:09;;;;;;;11.27;5.22;;;;;;;9.99;56.42;101254.59;5137948;28;20054;-63
2022/11/14 04:43:37;;;;;;;8.43;5.50;;;;;;;9.97;56.48;101262.03;5137774;28;20047;-64
2022/11/14 04:46:04;;;;;;;10.50;4.95;;;;;;;9.98;56.48;101257.50;5140543;28;20353;-63
2022/11/14 04:48:32;;;;;;;9.20;5.22;;;;;;;9.97;56.25;101256.66;5134527;28;20039;-63
2022/11/14 04:51:00;;;;;;;10.20;5.63;;;;;;;9.94;56.44;101261.63;5137390;28;20047;-63
2022/11/14 04:53:29;;;;;;;12.23;5.85;;;;;;;9.92;56.36;101253.78;5137713;28;20046;-64
2022/11/14 04:55:56;;;;;;;8.48;5.25;;;;;;;9.93;56.76;101257.28;5132620;28;20051;-64
2022/11/14 04:58:25;;;;;;;7.63;4.75;;;;;;;9.92;56.63;101258.31;5139476;28;20053;-64
2022/11/14 05:00:53;;;;;;;8.80;4.90;;;;;;;9.89;56.66;101253.38;5141425;28;20480;-63
2022/11/14 05:03:20;;;;;;;8.13;5.15;;;;;;;9.85;56.91;101244.91;5131702;28;20428;-63
2022/11/14 05:05:48;;;;;;;8.13;4.90;;;;;;;9.85;56.77;101254.81;5128240;28;20171;-64
2022/11/14 05:08:16;;;;;;;7.65;5.57;;;;;;;9.83;56.91;101244.28;5134144;28;20047;-63
2022/11/14 05:10:46;;;;;;;9.95;5.30;;;;;;;9.84;56.57;101237.88;5140892;28;20051;-63
2022/11/14 05:13:13;;;;;;;7.30;5.07;;;;;;;9.85;56.34;101236.84;5142331;28;20054;-64
2022/11/14 05:15:41;;;;;;;9.15;5.63;;;;;;;9.83;56.08;101238.91;5138624;28;20050;-64
2022/11/14 05:18:09;;;;;;;9.45;5.07;;;;;;;9.82;56.10;101233.75;5138441;28;20078;-64
2022/11/14 05:20:36;;;;;;;7.88;5.35;;;;;;;9.79;56.53;101232.31;5142029;28;20051;-64
2022/11/14 05:23:04;;;;;;;9.02;5.40;;;;;;;9.81;56.27;101227.56;5128189;28;20048;-64
2022/11/14 05:25:32;;;;;;;9.23;5.30;;;;;;;9.81;56.25;101224.03;5131343;27;20043;-64
2022/11/14 05:28:01;;;;;;;8.70;5.55;;;;;;;9.78;56.31;101222.59;5145712;27;20043;-64
2022/11/14 05:30:30;;;;;;;9.52;5.40;;;;;;;9.76;56.28;101222.81;5137437;27;20221;-64
2022/11/14 05:32:57;;;;;;;9.18;5.47;;;;;;;9.73;56.45;101225.06;5146454;27;20047;-64
2022/11/14 05:35:25;;;;;;;9.02;5.60;;;;;;;9.71;56.85;101225.28;5146042;27;20043;-64
2022/11/14 05:37:53;;;;;;;10.15;4.72;;;;;;;9.70;56.34;101223.63;5145319;27;20051;-64
2022/11/14 05:40:26;;;;;;;9.75;5.57;;;;;;;9.68;56.74;101223.00;5138484;27;20051;-64
2022/11/14 05:42:54;;;;;;;10.00;4.97;;;;;;;9.68;56.79;101222.19;5140648;27;20050;-64
2022/11/14 05:45:23;;;;;;;8.48;5.15;;;;;;;9.68;56.25;101216.81;5126087;27;20055;-64
2022/11/14 05:47:52;;;;;;;7.82;4.63;;;;;;;9.66;56.99;101210.84;5143460;27;20047;-64
2022/11/14 05:50:20;;;;;;;8.98;5.57;;;;;;;9.65;56.78;101210.00;5143839;27;20047;-64
2022/11/14 05:52:48;;;;;;;11.10;5.13;;;;;;;9.65;56.39;101212.69;5138785;27;20043;-64
2022/11/14 05:55:16;;;;;;;8.50;5.07;;;;;;;9.65;56.40;101203.81;5141658;27;20043;-66
2022/11/14 05:57:51;;;;;;;8.45;4.75;;;;;;;9.62;56.67;101202.38;5142362;27;20410;-67
2022/11/14 06:00:19;;;;;;;8.57;5.40;;;;;;;9.59;56.46;101208.16;5145005;27;20078;-64
2022/11/14 06:02:47;;;;;;;7.10;4.68;;;;;;;9.62;56.19;101206.91;5138298;27;20031;-64
2022/11/14 06:05:15;;;;;;;8.07;4.90;;;;;;;9.61;56.56;101211.47;5125035;28;20496;-64
2022/11/14 06:07:43;;;;;;;12.30;5.72;;;;;;;9.61;56.63;101207.94;5131759;27;20055;-64
2022/11/14 06:10:12;;;;;;;7.72;5.38;;;;;;;9.58;56.69;101208.34;5125132;28;20054;-64
2022/11/14 06:12:40;;;;;;;12.32;5.15;;;;;;;9.55;56.43;101209.59;5137180;27;20043;-63
2022/11/14 06:15:08;;;;;;;8.65;5.40;;;;;;;9.46;56.33;101200.94;5142968;27;20051;-63
2022/11/14 06:17:36;;;;;;;11.13;5.50;;;;;;;9.54;56.10;101216.00;5143608;27;20070;-63
2022/11/14 06:20:06;;;;;;;8.18;4.88;;;;;;;9.54;56.47;101209.81;5143592;27;20047;-66
2022/11/14 06:22:34;;;;;;;9.88;4.70;;;;;;;9.52;56.49;101204.63;5142593;27;20051;-63
2022/11/14 06:25:02;;;;;;;8.68;5.10;;;;;;;9.52;56.43;101206.50;5145117;27;20043;-64
2022/11/14 06:27:30;;;;;;;11.27;5.57;;;;;;;9.51;56.33;101212.91;5144137;27;20047;-69
2022/11/14 06:29:57;;;;;;;9.38;5.50;;;;;;;9.49;56.21;101209.59;5128964;27;20047;-65
2022/11/14 06:32:25;;;;;;;6.80;4.53;;;;;;;9.48;56.46;101216.81;5133610;27;20035;-67
2022/11/14 06:34:53;;;;;;;8.30;4.82;;;;;;;9.48;56.26;101214.13;5144394;27;20062;-66
2022/11/14 06:37:22;;;;;;;13.10;5.03;;;;;;;9.48;56.04;101214.13;5142914;27;20047;-67
2022/11/14 06:39:50;;;;;;;10.77;5.25;;;;;;;9.45;55.84;101207.31;5129936;27;20054;-67
2022/11/14 06:42:17;;;;;;;7.78;4.90;;;;;;;9.46;56.18;101214.34;5128891;27;20492;-67
2022/11/14 06:44:45;;;;;;;11.48;5.22;;;;;;;9.46;55.97;101221.56;5139719;27;20115;-67
2022/11/14 06:47:13;;;;;;;6.72;4.82;;;;;;;9.43;56.08;101219.28;5128675;27;20051;-67
2022/11/14 06:49:40;;;;;;;9.63;5.20;;;;;;;9.43;56.12;101224.66;5135668;27;20047;-67
2022/11/14 06:52:08;;;;;;;9.52;5.97;;;;;;;9.43;55.92;101225.47;4773774;27;9999759;-67
2022/11/14 06:54:37;;;;;;;10.90;5.47;;;;;;;9.39;55.64;101226.91;5139812;27;20423;-67
2022/11/14 06:57:05;;;;;;;10.45;5.38;;;;;;;9.38;55.89;101219.06;5133660;27;20051;-65
2022/11/14 06:59:32;;;;;;;10.27;5.78;;;;;;;9.38;55.83;101221.75;5141007;27;20738;-66
2022/11/14 07:02:00;;;;;;;14.63;5.82;;;;;;;9.37;55.47;101222.78;5126251;27;20477;-65
2022/11/14 07:04:28;;;;;;;8.73;5.43;;;;;;;9.36;55.87;101226.50;5139669;27;20511;-65
2022/11/14 07:06:55;;;;;;;10.57;5.05;;;;;;;9.34;56.12;101223.19;5125136;27;20053;-65
2022/11/14 07:09:23;;;;;;;8.13;5.15;;;;;;;9.30;56.10;101221.94;5141288;27;20089;-64
2022/11/14 07:11:52;;;;;;;8.77;4.88;;;;;;;9.27;55.88;101219.69;5141015;27;20051;-62
2022/11/14 07:14:20;;;;;;;11.07;5.53;;;;;;;9.20;55.81;101232.25;5137974;27;20050;-63
2022/11/14 07:16:48;;;;;;;11.02;5.38;;;;;;;9.22;56.08;101239.06;5140147;27;20050;-63
2022/11/14 07:19:15;;;;;;;11.50;5.63;;;;;;;9.24;55.91;101228.13;5132949;27;20404;-62
2022/11/14 07:21:43;;;;;;;8.45;5.63;;;;;;;9.23;55.40;101232.66;5134530;27;20057;-62
2022/11/14 07:24:11;;;;;;;7.70;4.68;;;;;;;9.22;55.93;101233.69;5140729;27;20075;-62
2022/11/14 07:26:38;;;;;;;8.93;4.68;;;;;;;9.22;55.56;101238.25;5139196;27;20051;-62
2022/11/14 07:29:07;;;;;;;10.23;5.38;;;;;;;9.17;56.11;101232.66;5132915;27;20453;-62
2022/11/14 07:31:35;;;;;;;10.80;4.93;;;;;;;9.11;56.18;101235.13;5140111;27;20065;-63
2022/11/14 07:34:04;;;;;;;11.43;5.70;;;;;;;9.10;56.02;101228.09;5138587;27;20058;-63
2022/11/14 07:36:32;;;;;;;12.02;5.55;;;;;;;9.08;56.49;101214.06;5139478;27;20047;-63
2022/11/14 07:39:00;;;;;;;9.65;5.97;;;;;;;9.10;55.61;101219.22;5130707;27;20055;-63
2022/11/14 07:41:27;;;;;;;9.30;5.55;;;;;;;9.10;56.08;101217.38;5140164;27;20058;-63
2022/11/14 07:43:56;;;;;;;8.63;4.70;;;;;;;9.09;56.03;101220.25;5138716;27;20074;-62
2022/11/14 07:46:25;;;;;;;10.35;5.53;;;;;;;9.11;55.99;101215.53;5127922;27;20390;-63
2022/11/14 07:48:52;;;;;;;10.57;5.20;;;;;;;9.12;55.75;101219.84;5138995;27;20047;-63
2022/11/14 07:51:20;;;;;;;7.53;5.38;;;;;;;9.11;55.79;101216.34;5138727;27;20051;-63
2022/11/14 07:53:48;;;;;;;8.85;5.53;;;;;;;9.12;56.43;101204.59;5129128;27;20118;-63
2022/11/14 07:56:16;;;;;;;9.05;5.00;;;;;;;9.11;55.92;101212.84;5139739;27;20351;-63
2022/11/14 07:58:44;;;;;;;8.63;5.47;;;;;;;9.11;56.18;101219.03;5139497;27;20050;-64
2022/11/14 08:01:13;;;;;;;10.70;5.70;;;;;;;9.10;56.10;101220.06;5138190;27;20047;-63
2022/11/14 08:03:43;;;;;;;8.85;5.40;;;;;;;9.08;56.74;101215.94;5125247;27;20402;-62
2022/11/14 08:06:14;;;;;;;8.07;5.55;;;;;;;9.06;56.64;101209.94;5137099;27;20444;-62
2022/11/14 08:08:42;;;;;;;9.85;5.05;;;;;;;9.09;56.04;101193.44;5137886;27;20120;-65
2022/11/14 08:11:10;;;;;;;9.05;5.65;;;;;;;9.12;56.77;101193.88;5139953;27;20051;-63
2022/11/14 08:13:37;;;;;;;9.48;5.68;;;;;;;9.11;56.38;101186.03;5137502;27;20050;-65
2022/11/14 08:16:06;;;;;;;8.45;5.22;;;;;;;9.11;56.99;101188.72;5136789;27;20055;-65
2022/11/14 08:18:40;;;;;;;6.75;4.80;;;;;;;9.10;57.04;101189.75;5138749;27;20168;-66
2022/11/14 08:21:09;;;;;;;7.93;5.10;;;;;;;9.08;57.13;101187.25;5139528;27;20047;-68
2022/11/14 08:23:37;;;;;;;8.32;4.68;;;;;;;9.08;56.80;101187.25;5134703;27;20043;-66
2022/11/14 08:26:05;;;;;;;9.80;5.60;;;;;;;9.08;56.82;101191.81;5137833;27;20048;-67
2022/11/14 08:28:33;;;;;;;7.85;4.97;;;;;;;9.09;56.59;101191.59;5136811;27;20047;-66
2022/11/14 08:31:02;;;;;;;8.48;5.53;;;;;;;9.08;56.55;101179.22;5139050;28;20051;-67
2022/11/14 08:33:31;;;;;;;8.48;5.50;;;;;;;9.07;56.67;101177.56;5136189;28;20054;-67
2022/11/14 08:36:00;;;;;;;7.65;4.63;;;;;;;9.09;57.17;101177.38;5137601;28;20055;-66
2022/11/14 08:38:31;;;;;;;9.68;4.80;;;;;;;9.08;57.19;101170.34;5136146;28;20047;-66
2022/11/14 08:41:00;;;;;;;6.72;5.03;;;;;;;9.08;57.01;101168.50;5127501;28;20108;-66
2022/11/14 08:43:28;;;;;;;8.48;5.18;;;;;;;9.10;57.10;101163.75;5131598;28;20486;-66
2022/11/14 08:45:58;;;;;;;9.63;5.07;;;;;;;9.14;56.99;101169.53;5141171;28;20062;-65
2022/11/14 08:48:29;;;;;;;8.05;5.10;;;;;;;9.17;57.28;101174.50;5128591;27;20107;-67
2022/11/14 08:50:58;;;;;;;9.05;4.78;;;;;;;9.30;56.97;101171.81;5134699;27;20043;-68
2022/11/14 08:53:25;;;;;;;7.70;4.60;;;;;;;9.44;56.68;101173.47;5129069;28;20536;-69
2022/11/14 08:55:54;;;;;;;7.68;4.97;;;;;;;9.60;56.02;101171.41;5133115;28;20052;-68
2022/11/14 08:58:22;;;;;;;11.27;6.13;;;;;;;9.74;55.82;101165.81;5143349;27;20067;-67
2022/11/14 09:00:50;;;;;;;7.60;4.47;;;;;;;9.91;55.29;101165.38;5145877;27;20074;-67
2022/11/14 09:03:18;;;;;;;8.48;5.05;;;;;;;10.07;55.12;101170.31;5145552;27;20529;-67
2022/11/14 09:05:51;;;;;;;10.77;4.60;;;;;;;10.24;54.84;101165.34;5133484;27;20565;-68
2022/11/14 09:08:18;;;;;;;9.75;5.00;;;;;;;10.35;54.25;101162.81;5143241;27;20051;-69
2022/11/14 09:10:46;;;;;;;7.45;4.53;;;;;;;10.50;54.20;101154.44;5133308;27;20039;-67
2022/11/14 09:13:16;;;;;;;11.30;4.68;;;;;;;10.65;53.70;101151.50;5143451;27;20518;-69
2022/11/14 09:15:43;;;;;;;9.65;4.15;;;;;;;10.74;53.38;101144.81;5130147;27;20040;-68
2022/11/14 09:18:12;;;;;;;10.07;5.18;;;;;;;10.83;53.29;101154.28;5142852;27;20051;-68
2022/11/14 09:20:40;;;;;;;8.48;5.20;;;;;;;10.95;53.15;101141.78;5138772;27;20043;-67
2022/11/14 09:23:07;;;;;;;8.27;4.63;;;;;;;11.02;52.96;101139.88;5142631;27;20059;-68
2022/11/14 09:25:36;;;;;;;6.07;4.35;;;;;;;11.07;52.89;101137.38;5140933;27;20047;-68
2022/11/14 09:28:05;;;;;;;8.02;5.10;;;;;;;11.13;52.82;101137.53;5129013;27;20469;-68
2022/11/14 09:30:34;;;;;;;7.30;5.15;;;;;;;11.16;52.99;101129.03;5137550;27;20048;-69
2022/11/14 09:33:03;;;;;;;10.07;4.72;;;;;;;11.18;53.08;101132.31;5134902;27;20073;-69
2022/11/14 09:35:38;;;;;;;6.18;4.20;;;;;;;11.25;52.98;101127.72;5129777;27;20116;-69
2022/11/14 09:38:07;;;;;;;8.65;5.22;;;;;;;11.19;52.97;101113.28;5141286;27;20043;-68
2022/11/14 09:40:51;;;;;;;6.90;5.05;;;;;;;11.34;52.91;101121.03;5142473;27;20106;-67
2022/11/14 09:43:39;;;;;;;7.93;5.07;;;;;;;11.39;52.84;101131.94;5147385;27;20061;-68
2022/11/14 09:46:17;;;;;;;7.60;4.95;;;;;;;11.43;52.77;101138.53;5141334;27;20349;-67
2022/11/14 09:48:45;;;;;;;9.40;4.82;;;;;;;11.47;52.92;101139.75;5139351;27;20043;-68
2022/11/14 09:51:16;;;;;;;6.95;4.85;;;;;;;11.48;52.82;101132.50;5136189;27;20044;-67
2022/11/14 09:53:51;;;;;;;10.55;5.28;;;;;;;11.54;52.72;101135.13;5127549;27;20047;-70
2022/11/14 09:56:24;;;;;;;7.80;4.60;;;;;;;11.54;52.99;101127.03;5128446;27;20047;-67
2022/11/14 09:58:54;;;;;;;7.50;5.00;;;;;;;11.54;52.89;101127.03;5143991;27;20035;-67
2022/11/14 10:01:32;;;;;;;7.47;5.20;;;;;;;11.44;53.45;101134.81;5130490;27;20382;-67
2022/11/14 10:04:07;;;;;;;7.45;4.68;;;;;;;11.28;54.16;101130.78;5141501;27;20110;-67
2022/11/14 10:06:45;;;;;;;8.48;4.88;;;;;;;11.10;54.74;101133.41;5130630;27;20073;-68
2022/11/14 10:09:33;;;;;;;9.10;5.30;;;;;;;10.90;55.37;101133.56;5123980;27;20073;-67
2022/11/14 10:12:09;;;;;;;8.32;5.60;;;;;;;10.69;55.88;101125.81;5141139;27;20463;-67
2022/11/14 10:14:58;;;;;;;10.18;5.30;;;;;;;10.69;56.39;101137.41;5138231;27;20047;-66
2022/11/14 10:17:50;;;;;;;6.90;5.38;;;;;;;10.53;56.65;101116.41;5130716;27;20047;-68
2022/11/14 10:20:23;;;;;;;7.97;4.93;;;;;;;10.55;56.87;101127.75;5143679;27;20046;-67
2022/11/14 10:23:06;;;;;;;10.77;5.30;;;;;;;10.52;57.30;101133.56;5133843;27;20051;-68
2022/11/14 10:25:45;;;;;;;8.27;5.30;;;;;;;10.48;57.26;101124.28;5130546;27;20051;-68
2022/11/14 10:28:39;;;;;;;9.48;5.78;;;;;;;10.43;57.88;101124.91;5141345;27;20380;-67
2022/11/14 10:31:19;;;;;;;6.65;4.97;;;;;;;10.41;57.90;101124.31;5137548;27;20107;-67
2022/11/14 10:33:56;;;;;;;7.93;5.68;;;;;;;10.37;58.21;101119.63;5138819;27;20047;-67
2022/11/14 10:36:45;;;;;;;12.15;5.65;;;;;;;10.37;57.88;101120.44;5138462;27;20582;-67
2022/11/14 10:39:19;;;;;;;9.48;5.93;;;;;;;10.36;58.46;101120.66;5137271;27;20047;-65
2022/11/14 10:41:49;;;;;;;10.90;5.75;;;;;;;10.36;58.45;101123.34;5141762;27;20106;-65
2022/11/14 10:44:32;;;;;;;9.23;5.85;;;;;;;10.34;58.39;101126.25;5127160;27;20043;-64
2022/11/14 10:47:04;;;;;;;11.13;6.63;;;;;;;10.33;58.60;101119.22;5136349;27;20054;-64
2022/11/14 10:49:37;;;;;;;8.20;5.47;;;;;;;10.34;58.91;101120.03;5135233;27;20043;-64
2022/11/14 10:52:09;;;;;;;9.63;5.95;;;;;;;10.32;59.13;101104.13;5141518;27;20055;-65
2022/11/14 10:54:44;;;;;;;7.80;5.72;;;;;;;10.26;59.34;101091.56;5143355;27;20041;-64
2022/11/14 10:57:15;;;;;;;8.93;5.63;;;;;;;10.35;59.09;101106.41;5137238;27;20050;-65
2022/11/14 10:59:43;;;;;;;8.68;6.18;;;;;;;10.27;59.12;101090.53;5138012;27;20130;-64
2022/11/14 11:02:11;;;;;;;8.60;5.50;;;;;;;10.36;59.60;101108.03;5135173;27;20107;-65
2022/11/14 11:04:42;;;;;;;13.38;7.28;;;;;;;10.36;59.50;101104.53;5143064;27;20043;-63
2022/11/14 11:13:06;;;;;;;12.70;5.85;;;;;;;10.39;60.02;101087.97;5141257;27;20047;-64
2022/11/14 11:15:40;;;;;;;9.18;6.30;;;;;;;10.35;59.98;101070.66;5128375;27;20043;-64
2022/11/14 11:18:25;;;;;;;9.05;6.10;;;;;;;10.36;60.05;101056.16;5141250;27;20050;-61
2022/11/14 11:21:07;;;;;;;10.18;6.60;;;;;;;10.39;60.28;101058.44;5141502;27;20135;-64
2022/11/14 11:23:36;;;;;;;11.73;6.60;;;;;;;10.37;60.22;101058.66;5139594;27;20508;-68
2022/11/14 11:26:07;;;;;;;10.20;5.72;;;;;;;10.38;60.12;101056.78;5143810;27;20047;-68
2022/11/14 11:28:37;;;;;;;8.90;6.25;;;;;;;10.41;60.36;101050.94;5139265;27;20047;-66
2022/11/14 11:31:06;;;;;;;9.18;6.53;;;;;;;10.42;60.47;101047.22;5139563;27;20050;-66
2022/11/14 11:33:36;;;;;;;9.60;6.03;;;;;;;10.44;60.46;101042.44;5146943;27;20122;-65
2022/11/14 11:36:12;;;;;;;9.52;6.63;;;;;;;10.47;60.57;101039.34;5142157;27;20055;-67
2022/11/14 11:38:40;;;;;;;10.13;6.00;;;;;;;10.50;60.61;101046.97;5137220;27;20047;-67
2022/11/14 11:41:20;;;;;;;9.93;6.40;;;;;;;10.51;60.48;101048.59;5137553;27;20300;-66
2022/11/14 11:44:15;;;;;;;9.38;6.63;;;;;;;10.54;60.34;101053.56;5136635;27;20054;-67